Weather History for Edenton, NC

Change the Weather History Date:

Monday, January 20, 2014

  Actual Average Record
Temperature  
Mean Temperature 49 °F -  
Max Temperature 60 °F 50 °F 69 °F (1947)
Min Temperature 38 °F 31 °F 6 °F (1940)
Degree Days  
Heating Degree Days 16    
Moisture  
Dew Point 32 °F    
Average Humidity 56    
Maximum Humidity 77    
Minimum Humidity 32    
Precipitation  
Precipitation 0.00 in - - ()
Sea Level Pressure  
Sea Level Pressure 29.85 in    
Wind  
Wind Speed 7 mph (SW)    
Max Wind Speed 10 mph    
Max Gust Speed 16 mph    
Visibility 10 miles    
Events      
Averages and records for this station are not official NWS values.
T = Trace of Precipitation, MM = Missing Value Source: NWS Daily Summary

Daily Weather History Graph

Daily Weather History Graph

Search for Another Location

Airport:

Trip Planner

Search our weather history database for the weather conditions in past years. The results will help you decide how hot, cold, wet, or windy it might be!

Date:

Astronomy

Jan. 20, 2014 Rise Set
Actual Time 7:14 AM EST 5:20 PM EST
Civil Twilight 6:46 AM EST 5:48 PM EST
Nautical Twilight 6:15 AM EST 6:19 PM EST
Astronomical Twilight 5:44 AM EST 6:50 PM EST
Moon 9:43 PM EST 9:22 AM EST
Length of Visible Light 11h 01m
Length of Day
10h 06m
Waning Gibbous, 83% of the Moon is Illuminated
Jan 20
Waning Gibbous
Jan 24
Last Quarter
Jan 30
New
Feb 6
First Quarter
Feb 14
Full

Hourly Weather History & Observations

Time (EST) Temp. Windchill Dew Point Humidity Pressure Visibility Wind Dir Wind Speed Gust Speed Precip Events Conditions
12:15 AM 42.6 °F 39.9 °F 31.6 °F 65% 29.91 in 10.0 mi SW 4.6 mph - N/A   Clear
12:35 AM 40.8 °F 37.8 °F 32.0 °F 71% 29.91 in 10.0 mi SW 4.6 mph - N/A   Clear
12:55 AM 42.8 °F 39.3 °F 31.6 °F 65% 29.91 in 10.0 mi WSW 5.8 mph - N/A   Clear
1:15 AM 42.1 °F 40.2 °F 31.6 °F 67% 29.90 in 10.0 mi WSW 3.5 mph - N/A   Clear
1:35 AM 42.1 °F 38.4 °F 31.1 °F 65% 29.89 in 10.0 mi WSW 5.8 mph - N/A   Clear
1:55 AM 42.3 °F 37.9 °F 31.6 °F 66% 29.89 in 10.0 mi WSW 6.9 mph - N/A   Clear
2:15 AM 41.7 °F 36.7 °F 32.0 °F 68% 29.89 in 10.0 mi SW 8.1 mph - N/A   Clear
2:35 AM 39.9 °F 34.5 °F 31.6 °F 72% 29.89 in 10.0 mi SW 8.1 mph - N/A   Clear
2:55 AM 39.2 °F 34.2 °F 31.5 °F 74% 29.89 in 10.0 mi SW 6.9 mph - N/A   Clear
3:15 AM 39.2 °F 33.6 °F 31.5 °F 74% 29.89 in 10.0 mi SSW 8.1 mph - N/A   Clear
3:35 AM 39.2 °F 33.0 °F 31.1 °F 73% 29.89 in 10.0 mi SSW 9.2 mph - N/A   Clear
3:55 AM 39.6 °F 33.5 °F 31.1 °F 72% 29.89 in 10.0 mi SSW 9.2 mph - N/A   Clear
4:15 AM 39.7 °F 35.6 °F 31.1 °F 71% 29.89 in 10.0 mi SW 5.8 mph - N/A   Clear
4:35 AM 40.1 °F 35.3 °F 31.8 °F 72% 29.88 in 10.0 mi SW 6.9 mph - N/A   Clear
4:55 AM 41.0 °F 35.8 °F 31.8 °F 70% 29.88 in 10.0 mi SW 8.1 mph - N/A   Clear
5:15 AM 41.0 °F 35.2 °F 31.8 °F 70% 29.88 in 10.0 mi SW 9.2 mph - N/A   Clear
5:35 AM 40.6 °F 36.7 °F 32.0 °F 71% 29.87 in 10.0 mi SW 5.8 mph - N/A   Clear
5:55 AM 40.8 °F 36.2 °F 32.0 °F 71% 29.88 in 10.0 mi WSW 6.9 mph - N/A   Clear
6:15 AM 40.1 °F 34.7 °F 32.0 °F 73% 29.87 in 10.0 mi SW 8.1 mph - N/A   Clear
6:35 AM 39.9 °F 34.5 °F 32.0 °F 73% 29.88 in 10.0 mi SW 8.1 mph - N/A   Clear
6:55 AM 38.5 °F 31.6 °F 31.8 °F 77% 29.88 in 10.0 mi SSW 10.4 mph - N/A   Clear
7:15 AM 38.8 °F 32.1 °F 31.6 °F 75% 29.88 in 10.0 mi SSW 10.4 mph - N/A   Clear
7:35 AM 39.2 °F 32.5 °F 31.8 °F 75% 29.87 in 10.0 mi SSW 10.4 mph - N/A   Clear
7:55 AM 39.6 °F 33.5 °F 31.8 °F 74% 29.87 in 10.0 mi SSW 9.2 mph - N/A   Clear
8:15 AM 40.8 °F 36.2 °F 32.0 °F 71% 29.88 in 10.0 mi SW 6.9 mph - N/A   Clear
8:35 AM 41.5 °F 36.4 °F 32.0 °F 69% 29.88 in 10.0 mi SW 8.1 mph - N/A   Clear
8:55 AM 42.4 °F 36.5 °F 32.2 °F 67% 29.88 in 10.0 mi SW 10.4 mph - N/A   Clear
9:15 AM 43.5 °F 38.3 °F 32.5 °F 65% 29.87 in 10.0 mi SW 9.2 mph - N/A   Clear
9:35 AM 45.0 °F 39.7 °F 32.4 °F 61% 29.87 in 10.0 mi SW 10.4 mph - N/A   Clear
9:55 AM 46.4 °F 42.4 °F 32.0 °F 57% 29.88 in 10.0 mi SW 8.1 mph - N/A   Clear
10:15 AM 47.3 °F - 32.4 °F 56% 29.88 in 10.0 mi SW 8.1 mph - N/A   Clear
10:35 AM 48.0 °F - 31.5 °F 53% 29.87 in 10.0 mi WSW 9.2 mph - N/A   Clear
10:55 AM 49.3 °F - 31.6 °F 51% 29.86 in 10.0 mi SSW 9.2 mph - N/A   Clear
11:15 AM 50.5 °F - 31.6 °F 48% 29.84 in 10.0 mi SW 10.4 mph - N/A   Clear
11:35 AM 52.7 °F - 31.5 °F 44% 29.84 in 10.0 mi SW 9.2 mph - N/A   Clear
11:55 AM 53.4 °F - 31.3 °F 43% 29.82 in 10.0 mi SW 10.4 mph - N/A   Clear
12:15 PM 54.3 °F - 31.6 °F 42% 29.80 in 10.0 mi SW 10.4 mph - N/A   Clear
12:35 PM 55.8 °F - 30.7 °F 39% 29.79 in 10.0 mi SW 10.4 mph - N/A   Clear
12:55 PM 56.8 °F - 30.6 °F 37% 29.79 in 10.0 mi SW 10.4 mph - N/A   Clear
1:15 PM 57.6 °F - 30.4 °F 36% 29.78 in 10.0 mi SW 9.2 mph - N/A   Clear
1:35 PM 59.0 °F - 31.3 °F 35% 29.77 in 10.0 mi SW 10.4 mph - N/A   Clear
1:55 PM 59.4 °F - 29.5 °F 32% 29.77 in 10.0 mi WSW 9.2 mph 16.1 mph N/A   Clear
2:15 PM 59.5 °F - 30.9 °F 34% 29.76 in 10.0 mi SW 10.4 mph - N/A   Clear
2:35 PM 60.1 °F - 30.6 °F 33% 29.76 in 10.0 mi SW 10.4 mph - N/A   Clear
2:55 PM 60.3 °F - 30.4 °F 32% 29.76 in 10.0 mi SW 10.4 mph - N/A   Clear
3:15 PM 60.3 °F - 30.2 °F 32% 29.77 in 10.0 mi WSW 10.4 mph 16.1 mph N/A   Clear
3:35 PM 60.6 °F - 30.7 °F 32% 29.77 in 10.0 mi SW 9.2 mph - N/A   Clear
3:55 PM 60.1 °F - 30.6 °F 33% 29.77 in 10.0 mi WSW 9.2 mph - N/A   Clear
4:15 PM 59.4 °F - 31.6 °F 35% 29.77 in 10.0 mi SW 9.2 mph - N/A   Clear
4:35 PM 58.1 °F - 32.2 °F 38% 29.78 in 10.0 mi SW 9.2 mph - N/A   Clear
4:55 PM 57.4 °F - 32.2 °F 39% 29.78 in 10.0 mi SW 8.1 mph - N/A   Clear
5:15 PM 55.8 °F - 32.9 °F 42% 29.79 in 10.0 mi SW 8.1 mph - N/A   Clear
5:35 PM 55.4 °F - 32.9 °F 43% 29.80 in 10.0 mi SW 8.1 mph - N/A   Clear
5:55 PM 54.0 °F - 32.9 °F 45% 29.81 in 10.0 mi SW 6.9 mph - N/A   Clear
6:15 PM 54.3 °F - 32.2 °F 43% 29.81 in 10.0 mi SW 6.9 mph - N/A   Clear
6:35 PM 52.3 °F - 32.0 °F 46% 29.82 in 10.0 mi SW 4.6 mph - N/A   Clear
6:55 PM 51.1 °F - 32.5 °F 49% 29.83 in 10.0 mi SSW 4.6 mph - N/A   Clear
7:15 PM 52.0 °F - 32.5 °F 48% 29.84 in 10.0 mi SSW 5.8 mph - N/A   Clear
7:35 PM 49.1 °F - 32.9 °F 54% 29.84 in 10.0 mi SSW 5.8 mph - N/A   Clear
7:55 PM 50.4 °F - 32.9 °F 51% 29.84 in 10.0 mi SW 4.6 mph - N/A   Clear
8:15 PM 51.1 °F - 32.9 °F 50% 29.85 in 10.0 mi SW 4.6 mph - N/A   Clear
8:35 PM 51.6 °F - 32.4 °F 48% 29.86 in 10.0 mi WSW 5.8 mph - N/A   Clear
8:55 PM 49.8 °F - 32.9 °F 52% 29.86 in 10.0 mi SW 5.8 mph - N/A   Clear
9:15 PM 48.2 °F - 33.1 °F 56% 29.86 in 10.0 mi SW 5.8 mph - N/A   Clear
9:35 PM 48.0 °F - 32.4 °F 55% 29.87 in 10.0 mi SSW 5.8 mph - N/A   Clear
9:55 PM 47.5 °F - 32.5 °F 56% 29.87 in 10.0 mi SSW 5.8 mph - N/A   Clear
10:15 PM 48.4 °F - 32.0 °F 53% 29.87 in 10.0 mi SW 4.6 mph - N/A   Clear
10:35 PM 49.6 °F - 31.6 °F 50% 29.87 in 10.0 mi SW 3.5 mph - N/A   Clear
10:55 PM 48.9 °F - 31.8 °F 52% 29.86 in 10.0 mi SW 4.6 mph - N/A   Clear
11:15 PM 46.9 °F - 32.0 °F 56% 29.85 in 10.0 mi SSW 4.6 mph - N/A   Clear
11:35 PM 43.7 °F 41.1 °F 32.5 °F 65% 29.85 in 10.0 mi SSW 4.6 mph - N/A   Clear
11:55 PM 42.6 °F 40.9 °F 32.5 °F 68% 29.84 in 10.0 mi SW 3.5 mph - N/A   Clear